Huvudsida
METAR-TAF:

METAR-TAF

Flygplatser :

Svalbards flygplats. Longyear

Longyearbyen, Norge

latitud: 78-15N, longitud: 015-28E, höjd: 2 m

Aktuellt väderrapport

Denna rapport gjordes för 13 minuter sedan, klockan 06:50 UTC
Vind 2 kt varierande vindriktning
Temperatur -17°C
Fuktighet 71%
Tryck 1016 hPa
Sikt 10 km eller mer
Få moln på en höjd av 2000 ft
Brutna moln på en höjd av 20000 ft

METAR: ENSB 050650Z VRB02KT 9999 FEW020 BKN200 M17/M21 Q1016 RMK WIND 1400FT VRB02KT

Tid: 09:03 (07:03 UTC)

Väderprognos

Prognos gäller från 05 kl. 06 UTC till 06 kl. 06 UTC
Vind 5 kt varierande vindriktning
Sikt 10 km eller mer
Få moln på en höjd av 2000 ft
Temporärt
från 05 kl. 06 UTC till 05 kl. 09 UTC
Vind 10 kt från nordost

TAF: ENSB 0506/0606 VRB05KT 9999 FEW020 TEMPO 0506/0509 04010KT

Aktuella väderrapporter och prognoser från 4000 flygplatser (METAR- och TAF-rapporter).

De tillgängliga stationerna syns som gula och röda prickar på kartan.

För musen över prickarna för att se namnen på stationerna.

Klicka sedan för att få väderrapporter och prognoser.

För att ändra kartan: Klicka på de gröna knapparna med ett svart kors på för att zooma in; den gröna knappen med ett streck på för att zooma ut; eller på de gröna pilarna för angränsande kartor.


METAR-TAF: